sensor_id;sensor_type;location;lat;lon;timestamp;P1;durP1;ratioP1;P2;durP2;ratioP2
6255;SDS011;3161;48.794;9.784;2022-11-24T00:01:16;8.53;;;1.97;;
6255;SDS011;3161;48.794;9.784;2022-11-24T00:03:51;4.63;;;2.07;;
6255;SDS011;3161;48.794;9.784;2022-11-24T00:06:20;3.87;;;2.40;;
6255;SDS011;3161;48.794;9.784;2022-11-24T00:08:48;2.77;;;1.40;;
6255;SDS011;3161;48.794;9.784;2022-11-24T00:11:18;3.97;;;1.40;;
6255;SDS011;3161;48.794;9.784;2022-11-24T00:13:48;6.07;;;2.03;;
6255;SDS011;3161;48.794;9.784;2022-11-24T00:16:20;6.50;;;1.77;;
6255;SDS011;3161;48.794;9.784;2022-11-24T00:18:50;8.00;;;2.23;;
6255;SDS011;3161;48.794;9.784;2022-11-24T00:21:21;5.27;;;1.80;;
6255;SDS011;3161;48.794;9.784;2022-11-24T00:23:50;5.60;;;1.47;;
6255;SDS011;3161;48.794;9.784;2022-11-24T00:26:19;4.70;;;1.70;;
6255;SDS011;3161;48.794;9.784;2022-11-24T00:28:49;3.97;;;1.63;;
6255;SDS011;3161;48.794;9.784;2022-11-24T00:31:21;8.90;;;1.80;;
6255;SDS011;3161;48.794;9.784;2022-11-24T00:33:52;10.10;;;1.70;;
6255;SDS011;3161;48.794;9.784;2022-11-24T00:36:21;6.53;;;1.97;;
6255;SDS011;3161;48.794;9.784;2022-11-24T00:38:54;7.97;;;1.97;;
6255;SDS011;3161;48.794;9.784;2022-11-24T00:41:24;7.30;;;2.63;;
6255;SDS011;3161;48.794;9.784;2022-11-24T00:43:52;10.67;;;2.10;;
6255;SDS011;3161;48.794;9.784;2022-11-24T00:46:20;7.90;;;2.23;;
6255;SDS011;3161;48.794;9.784;2022-11-24T00:48:49;2.13;;;1.50;;
6255;SDS011;3161;48.794;9.784;2022-11-24T00:51:17;6.07;;;1.60;;
6255;SDS011;3161;48.794;9.784;2022-11-24T00:53:46;7.13;;;1.73;;
6255;SDS011;3161;48.794;9.784;2022-11-24T00:56:14;9.67;;;2.10;;
6255;SDS011;3161;48.794;9.784;2022-11-24T00:58:41;7.87;;;1.80;;
6255;SDS011;3161;48.794;9.784;2022-11-24T01:01:13;9.00;;;1.87;;
6255;SDS011;3161;48.794;9.784;2022-11-24T01:03:45;3.27;;;1.30;;
6255;SDS011;3161;48.794;9.784;2022-11-24T01:06:14;3.07;;;1.70;;
6255;SDS011;3161;48.794;9.784;2022-11-24T01:08:43;13.87;;;2.23;;
6255;SDS011;3161;48.794;9.784;2022-11-24T01:13:48;4.27;;;1.87;;
6255;SDS011;3161;48.794;9.784;2022-11-24T01:16:27;2.53;;;1.13;;
6255;SDS011;3161;48.794;9.784;2022-11-24T01:18:56;3.33;;;1.30;;
6255;SDS011;3161;48.794;9.784;2022-11-24T01:21:24;4.07;;;1.30;;
6255;SDS011;3161;48.794;9.784;2022-11-24T01:23:52;8.63;;;1.93;;
6255;SDS011;3161;48.794;9.784;2022-11-24T01:26:20;9.33;;;1.90;;
6255;SDS011;3161;48.794;9.784;2022-11-24T01:28:52;7.27;;;1.40;;
6255;SDS011;3161;48.794;9.784;2022-11-24T01:31:20;6.80;;;1.50;;
6255;SDS011;3161;48.794;9.784;2022-11-24T01:33:48;3.40;;;1.47;;
6255;SDS011;3161;48.794;9.784;2022-11-24T01:36:16;5.67;;;1.73;;
6255;SDS011;3161;48.794;9.784;2022-11-24T01:38:43;8.07;;;2.07;;
6255;SDS011;3161;48.794;9.784;2022-11-24T01:41:12;3.17;;;1.20;;
6255;SDS011;3161;48.794;9.784;2022-11-24T01:43:42;10.30;;;2.07;;
6255;SDS011;3161;48.794;9.784;2022-11-24T01:49:04;2.73;;;1.50;;
6255;SDS011;3161;48.794;9.784;2022-11-24T01:51:33;11.30;;;2.37;;
6255;SDS011;3161;48.794;9.784;2022-11-24T01:54:07;6.20;;;1.70;;
6255;SDS011;3161;48.794;9.784;2022-11-24T01:56:37;10.07;;;1.50;;
6255;SDS011;3161;48.794;9.784;2022-11-24T01:59:07;10.33;;;2.20;;
6255;SDS011;3161;48.794;9.784;2022-11-24T02:01:37;11.33;;;1.67;;
6255;SDS011;3161;48.794;9.784;2022-11-24T02:04:07;9.07;;;1.80;;
6255;SDS011;3161;48.794;9.784;2022-11-24T02:06:36;1.30;;;0.90;;
6255;SDS011;3161;48.794;9.784;2022-11-24T02:09:13;7.37;;;1.70;;
6255;SDS011;3161;48.794;9.784;2022-11-24T02:11:48;5.77;;;1.53;;
6255;SDS011;3161;48.794;9.784;2022-11-24T02:14:16;3.53;;;1.30;;
6255;SDS011;3161;48.794;9.784;2022-11-24T02:16:49;5.33;;;1.73;;
6255;SDS011;3161;48.794;9.784;2022-11-24T02:19:24;10.00;;;1.17;;
6255;SDS011;3161;48.794;9.784;2022-11-24T02:21:57;6.27;;;1.40;;
6255;SDS011;3161;48.794;9.784;2022-11-24T02:24:32;4.57;;;1.63;;
6255;SDS011;3161;48.794;9.784;2022-11-24T02:26:57;6.87;;;1.33;;
6255;SDS011;3161;48.794;9.784;2022-11-24T02:29:25;5.07;;;1.67;;
6255;SDS011;3161;48.794;9.784;2022-11-24T02:31:57;10.30;;;1.80;;
6255;SDS011;3161;48.794;9.784;2022-11-24T02:34:26;4.97;;;1.47;;
6255;SDS011;3161;48.794;9.784;2022-11-24T02:36:53;5.73;;;1.53;;
6255;SDS011;3161;48.794;9.784;2022-11-24T02:39:21;6.10;;;1.50;;
6255;SDS011;3161;48.794;9.784;2022-11-24T02:41:50;5.27;;;1.20;;
6255;SDS011;3161;48.794;9.784;2022-11-24T02:44:20;9.07;;;1.93;;
6255;SDS011;3161;48.794;9.784;2022-11-24T02:47:00;6.23;;;1.30;;
6255;SDS011;3161;48.794;9.784;2022-11-24T02:49:29;12.13;;;1.73;;
6255;SDS011;3161;48.794;9.784;2022-11-24T02:51:57;5.50;;;1.27;;
6255;SDS011;3161;48.794;9.784;2022-11-24T02:54:25;5.97;;;1.10;;
6255;SDS011;3161;48.794;9.784;2022-11-24T02:56:52;5.50;;;1.50;;
6255;SDS011;3161;48.794;9.784;2022-11-24T02:59:20;6.17;;;1.50;;
6255;SDS011;3161;48.794;9.784;2022-11-24T03:01:47;6.40;;;1.20;;
6255;SDS011;3161;48.794;9.784;2022-11-24T03:04:15;6.87;;;1.23;;
6255;SDS011;3161;48.794;9.784;2022-11-24T03:06:43;4.97;;;1.10;;
6255;SDS011;3161;48.794;9.784;2022-11-24T03:09:10;4.90;;;1.33;;
6255;SDS011;3161;48.794;9.784;2022-11-24T03:11:38;4.30;;;1.07;;
6255;SDS011;3161;48.794;9.784;2022-11-24T03:14:05;6.40;;;1.60;;
6255;SDS011;3161;48.794;9.784;2022-11-24T03:16:34;5.60;;;1.20;;
6255;SDS011;3161;48.794;9.784;2022-11-24T03:19:01;5.60;;;1.23;;
6255;SDS011;3161;48.794;9.784;2022-11-24T03:21:30;7.53;;;1.53;;
6255;SDS011;3161;48.794;9.784;2022-11-24T03:23:57;10.00;;;1.63;;
6255;SDS011;3161;48.794;9.784;2022-11-24T03:26:25;9.13;;;1.47;;
6255;SDS011;3161;48.794;9.784;2022-11-24T03:28:53;5.83;;;2.57;;
6255;SDS011;3161;48.794;9.784;2022-11-24T03:31:22;4.00;;;1.17;;
6255;SDS011;3161;48.794;9.784;2022-11-24T03:33:58;8.40;;;3.10;;
6255;SDS011;3161;48.794;9.784;2022-11-24T03:36:23;7.40;;;1.32;;
6255;SDS011;3161;48.794;9.784;2022-11-24T03:38:50;5.33;;;1.03;;
6255;SDS011;3161;48.794;9.784;2022-11-24T03:41:18;5.57;;;1.40;;
6255;SDS011;3161;48.794;9.784;2022-11-24T03:43:45;5.73;;;1.00;;
6255;SDS011;3161;48.794;9.784;2022-11-24T03:46:13;5.47;;;1.47;;
6255;SDS011;3161;48.794;9.784;2022-11-24T03:48:40;6.93;;;1.20;;
6255;SDS011;3161;48.794;9.784;2022-11-24T03:51:09;4.80;;;1.23;;
6255;SDS011;3161;48.794;9.784;2022-11-24T03:53:37;6.67;;;1.70;;
6255;SDS011;3161;48.794;9.784;2022-11-24T03:56:04;4.93;;;1.67;;
6255;SDS011;3161;48.794;9.784;2022-11-24T03:58:32;2.97;;;1.30;;
6255;SDS011;3161;48.794;9.784;2022-11-24T04:01:00;3.10;;;1.00;;
6255;SDS011;3161;48.794;9.784;2022-11-24T04:03:28;6.93;;;1.40;;
6255;SDS011;3161;48.794;9.784;2022-11-24T04:05:55;4.27;;;0.97;;
6255;SDS011;3161;48.794;9.784;2022-11-24T04:08:23;3.00;;;1.00;;
6255;SDS011;3161;48.794;9.784;2022-11-24T04:10:51;3.13;;;1.20;;
6255;SDS011;3161;48.794;9.784;2022-11-24T04:13:21;5.23;;;1.93;;
6255;SDS011;3161;48.794;9.784;2022-11-24T04:15:50;7.20;;;1.87;;
6255;SDS011;3161;48.794;9.784;2022-11-24T04:18:17;5.67;;;1.50;;
6255;SDS011;3161;48.794;9.784;2022-11-24T04:20:47;4.93;;;1.27;;
6255;SDS011;3161;48.794;9.784;2022-11-24T04:23:15;5.00;;;1.70;;
6255;SDS011;3161;48.794;9.784;2022-11-24T04:25:43;5.33;;;1.00;;
6255;SDS011;3161;48.794;9.784;2022-11-24T04:28:11;4.80;;;0.90;;
6255;SDS011;3161;48.794;9.784;2022-11-24T04:30:38;3.40;;;1.17;;
6255;SDS011;3161;48.794;9.784;2022-11-24T04:33:08;4.93;;;0.90;;
6255;SDS011;3161;48.794;9.784;2022-11-24T04:35:36;4.83;;;1.37;;
6255;SDS011;3161;48.794;9.784;2022-11-24T04:38:03;10.77;;;1.27;;
6255;SDS011;3161;48.794;9.784;2022-11-24T04:40:31;5.67;;;1.40;;
6255;SDS011;3161;48.794;9.784;2022-11-24T04:42:58;1.97;;;1.40;;
6255;SDS011;3161;48.794;9.784;2022-11-24T04:45:26;7.10;;;1.40;;
6255;SDS011;3161;48.794;9.784;2022-11-24T04:47:53;4.73;;;1.40;;
6255;SDS011;3161;48.794;9.784;2022-11-24T04:50:21;2.73;;;1.50;;
6255;SDS011;3161;48.794;9.784;2022-11-24T04:52:48;7.77;;;1.77;;
6255;SDS011;3161;48.794;9.784;2022-11-24T04:55:16;3.40;;;1.00;;
6255;SDS011;3161;48.794;9.784;2022-11-24T04:57:43;4.40;;;1.23;;
6255;SDS011;3161;48.794;9.784;2022-11-24T05:00:11;3.93;;;1.53;;
6255;SDS011;3161;48.794;9.784;2022-11-24T05:02:39;5.13;;;1.63;;
6255;SDS011;3161;48.794;9.784;2022-11-24T05:05:07;2.40;;;1.70;;
6255;SDS011;3161;48.794;9.784;2022-11-24T05:07:35;6.17;;;1.20;;
6255;SDS011;3161;48.794;9.784;2022-11-24T05:10:03;6.17;;;1.50;;
6255;SDS011;3161;48.794;9.784;2022-11-24T05:12:52;2.90;;;1.20;;
6255;SDS011;3161;48.794;9.784;2022-11-24T05:15:21;4.57;;;1.50;;
6255;SDS011;3161;48.794;9.784;2022-11-24T05:17:49;8.77;;;1.57;;
6255;SDS011;3161;48.794;9.784;2022-11-24T05:20:17;10.53;;;1.60;;
6255;SDS011;3161;48.794;9.784;2022-11-24T05:22:44;5.37;;;1.40;;
6255;SDS011;3161;48.794;9.784;2022-11-24T05:25:12;7.83;;;1.20;;
6255;SDS011;3161;48.794;9.784;2022-11-24T05:27:40;6.80;;;1.27;;
6255;SDS011;3161;48.794;9.784;2022-11-24T05:30:08;2.70;;;1.30;;
6255;SDS011;3161;48.794;9.784;2022-11-24T05:32:36;4.43;;;1.63;;
6255;SDS011;3161;48.794;9.784;2022-11-24T05:35:04;6.67;;;1.47;;
6255;SDS011;3161;48.794;9.784;2022-11-24T05:37:34;6.30;;;1.47;;
6255;SDS011;3161;48.794;9.784;2022-11-24T05:40:03;3.27;;;1.27;;
6255;SDS011;3161;48.794;9.784;2022-11-24T05:42:31;3.47;;;1.40;;
6255;SDS011;3161;48.794;9.784;2022-11-24T05:45:14;4.03;;;1.83;;
6255;SDS011;3161;48.794;9.784;2022-11-24T05:47:39;5.77;;;1.33;;
6255;SDS011;3161;48.794;9.784;2022-11-24T05:50:08;7.70;;;2.07;;
6255;SDS011;3161;48.794;9.784;2022-11-24T05:52:37;4.97;;;1.80;;
6255;SDS011;3161;48.794;9.784;2022-11-24T05:55:05;6.30;;;2.17;;
6255;SDS011;3161;48.794;9.784;2022-11-24T05:57:34;2.90;;;1.50;;
6255;SDS011;3161;48.794;9.784;2022-11-24T06:00:03;5.73;;;1.80;;
6255;SDS011;3161;48.794;9.784;2022-11-24T06:02:31;4.83;;;1.83;;
6255;SDS011;3161;48.794;9.784;2022-11-24T06:04:59;5.67;;;1.70;;
6255;SDS011;3161;48.794;9.784;2022-11-24T06:07:26;10.03;;;1.63;;
6255;SDS011;3161;48.794;9.784;2022-11-24T06:09:54;5.33;;;1.50;;
6255;SDS011;3161;48.794;9.784;2022-11-24T06:12:21;6.97;;;1.50;;
6255;SDS011;3161;48.794;9.784;2022-11-24T06:14:49;5.60;;;1.67;;
6255;SDS011;3161;48.794;9.784;2022-11-24T06:17:16;3.00;;;1.30;;
6255;SDS011;3161;48.794;9.784;2022-11-24T06:19:52;11.03;;;1.80;;
6255;SDS011;3161;48.794;9.784;2022-11-24T06:22:21;5.10;;;1.67;;
6255;SDS011;3161;48.794;9.784;2022-11-24T06:24:48;6.20;;;1.33;;
6255;SDS011;3161;48.794;9.784;2022-11-24T06:27:16;4.77;;;1.70;;
6255;SDS011;3161;48.794;9.784;2022-11-24T06:29:44;6.63;;;1.93;;
6255;SDS011;3161;48.794;9.784;2022-11-24T06:32:12;6.57;;;1.70;;
6255;SDS011;3161;48.794;9.784;2022-11-24T06:34:40;4.20;;;1.77;;
6255;SDS011;3161;48.794;9.784;2022-11-24T06:37:08;5.23;;;1.77;;
6255;SDS011;3161;48.794;9.784;2022-11-24T06:39:35;5.17;;;2.27;;
6255;SDS011;3161;48.794;9.784;2022-11-24T06:42:03;8.50;;;2.37;;
6255;SDS011;3161;48.794;9.784;2022-11-24T06:44:30;11.97;;;3.05;;
6255;SDS011;3161;48.794;9.784;2022-11-24T06:46:58;8.37;;;4.83;;
6255;SDS011;3161;48.794;9.784;2022-11-24T06:49:26;7.97;;;4.50;;
6255;SDS011;3161;48.794;9.784;2022-11-24T06:51:54;11.73;;;5.27;;
6255;SDS011;3161;48.794;9.784;2022-11-24T06:54:21;8.17;;;2.93;;
6255;SDS011;3161;48.794;9.784;2022-11-24T06:56:54;8.20;;;3.73;;
6255;SDS011;3161;48.794;9.784;2022-11-24T06:59:19;8.17;;;3.17;;
6255;SDS011;3161;48.794;9.784;2022-11-24T07:01:47;6.57;;;2.90;;
6255;SDS011;3161;48.794;9.784;2022-11-24T07:04:14;6.47;;;3.20;;
6255;SDS011;3161;48.794;9.784;2022-11-24T07:06:42;6.07;;;2.53;;
6255;SDS011;3161;48.794;9.784;2022-11-24T07:09:11;7.27;;;2.20;;
6255;SDS011;3161;48.794;9.784;2022-11-24T07:11:39;9.60;;;2.50;;
6255;SDS011;3161;48.794;9.784;2022-11-24T07:14:07;6.90;;;2.17;;
6255;SDS011;3161;48.794;9.784;2022-11-24T07:16:36;10.23;;;2.40;;
6255;SDS011;3161;48.794;9.784;2022-11-24T07:19:05;6.07;;;2.10;;
6255;SDS011;3161;48.794;9.784;2022-11-24T07:21:34;12.07;;;2.47;;
6255;SDS011;3161;48.794;9.784;2022-11-24T07:24:02;6.80;;;2.83;;
6255;SDS011;3161;48.794;9.784;2022-11-24T07:26:30;5.47;;;1.80;;
6255;SDS011;3161;48.794;9.784;2022-11-24T07:29:00;8.23;;;2.13;;
6255;SDS011;3161;48.794;9.784;2022-11-24T07:31:27;7.13;;;3.40;;
6255;SDS011;3161;48.794;9.784;2022-11-24T07:33:55;9.90;;;4.27;;
6255;SDS011;3161;48.794;9.784;2022-11-24T07:36:22;19.90;;;7.73;;
6255;SDS011;3161;48.794;9.784;2022-11-24T07:38:50;17.73;;;5.70;;
6255;SDS011;3161;48.794;9.784;2022-11-24T07:41:18;14.80;;;5.80;;
6255;SDS011;3161;48.794;9.784;2022-11-24T07:43:47;17.90;;;7.37;;
6255;SDS011;3161;48.794;9.784;2022-11-24T07:46:19;22.27;;;4.67;;
6255;SDS011;3161;48.794;9.784;2022-11-24T07:48:47;20.40;;;5.03;;
6255;SDS011;3161;48.794;9.784;2022-11-24T07:51:14;15.33;;;4.60;;
6255;SDS011;3161;48.794;9.784;2022-11-24T07:53:42;14.07;;;3.23;;
6255;SDS011;3161;48.794;9.784;2022-11-24T07:56:11;7.53;;;2.47;;
6255;SDS011;3161;48.794;9.784;2022-11-24T07:58:39;15.13;;;2.93;;
6255;SDS011;3161;48.794;9.784;2022-11-24T08:01:16;13.77;;;3.00;;
6255;SDS011;3161;48.794;9.784;2022-11-24T08:03:44;17.13;;;3.27;;
6255;SDS011;3161;48.794;9.784;2022-11-24T08:06:13;9.57;;;2.83;;
6255;SDS011;3161;48.794;9.784;2022-11-24T08:08:43;10.97;;;2.67;;
6255;SDS011;3161;48.794;9.784;2022-11-24T08:11:13;17.43;;;4.83;;
6255;SDS011;3161;48.794;9.784;2022-11-24T08:13:42;16.83;;;3.80;;
6255;SDS011;3161;48.794;9.784;2022-11-24T08:16:11;6.33;;;2.73;;
6255;SDS011;3161;48.794;9.784;2022-11-24T08:18:40;7.00;;;2.47;;
6255;SDS011;3161;48.794;9.784;2022-11-24T08:21:10;9.13;;;2.67;;
6255;SDS011;3161;48.794;9.784;2022-11-24T08:23:38;12.67;;;3.10;;
6255;SDS011;3161;48.794;9.784;2022-11-24T08:26:07;9.07;;;2.27;;
6255;SDS011;3161;48.794;9.784;2022-11-24T08:28:41;5.80;;;1.90;;
6255;SDS011;3161;48.794;9.784;2022-11-24T08:31:13;11.57;;;2.43;;
6255;SDS011;3161;48.794;9.784;2022-11-24T08:33:45;11.27;;;2.60;;
6255;SDS011;3161;48.794;9.784;2022-11-24T08:36:14;6.20;;;1.50;;
6255;SDS011;3161;48.794;9.784;2022-11-24T08:38:43;5.97;;;2.23;;
6255;SDS011;3161;48.794;9.784;2022-11-24T08:41:13;12.90;;;2.53;;
6255;SDS011;3161;48.794;9.784;2022-11-24T08:43:41;9.63;;;2.93;;
6255;SDS011;3161;48.794;9.784;2022-11-24T08:46:10;14.73;;;5.30;;
6255;SDS011;3161;48.794;9.784;2022-11-24T08:48:41;16.37;;;6.27;;
6255;SDS011;3161;48.794;9.784;2022-11-24T08:51:11;11.40;;;3.10;;
6255;SDS011;3161;48.794;9.784;2022-11-24T08:53:40;6.87;;;2.00;;
6255;SDS011;3161;48.794;9.784;2022-11-24T08:56:09;7.70;;;1.90;;
6255;SDS011;3161;48.794;9.784;2022-11-24T08:58:38;14.53;;;2.70;;
6255;SDS011;3161;48.794;9.784;2022-11-24T09:01:13;6.73;;;1.77;;
6255;SDS011;3161;48.794;9.784;2022-11-24T09:03:42;7.47;;;2.03;;
6255;SDS011;3161;48.794;9.784;2022-11-24T09:06:11;10.40;;;2.80;;
6255;SDS011;3161;48.794;9.784;2022-11-24T09:08:42;9.33;;;1.90;;
6255;SDS011;3161;48.794;9.784;2022-11-24T09:11:10;7.33;;;1.80;;
6255;SDS011;3161;48.794;9.784;2022-11-24T09:13:40;3.60;;;1.80;;
6255;SDS011;3161;48.794;9.784;2022-11-24T09:16:09;9.40;;;2.57;;
6255;SDS011;3161;48.794;9.784;2022-11-24T09:18:39;8.87;;;1.80;;
6255;SDS011;3161;48.794;9.784;2022-11-24T09:21:18;10.60;;;2.10;;
6255;SDS011;3161;48.794;9.784;2022-11-24T09:23:44;5.03;;;1.73;;
6255;SDS011;3161;48.794;9.784;2022-11-24T09:26:17;7.90;;;2.00;;
6255;SDS011;3161;48.794;9.784;2022-11-24T09:28:50;9.90;;;2.27;;
6255;SDS011;3161;48.794;9.784;2022-11-24T09:31:19;11.90;;;2.63;;
6255;SDS011;3161;48.794;9.784;2022-11-24T09:33:49;7.17;;;2.07;;
6255;SDS011;3161;48.794;9.784;2022-11-24T09:36:17;9.90;;;2.17;;
6255;SDS011;3161;48.794;9.784;2022-11-24T09:38:45;10.53;;;2.37;;
6255;SDS011;3161;48.794;9.784;2022-11-24T09:49:00;12.40;;;2.83;;
6255;SDS011;3161;48.794;9.784;2022-11-24T09:51:30;16.03;;;4.80;;
6255;SDS011;3161;48.794;9.784;2022-11-24T09:56:33;20.50;;;7.83;;
6255;SDS011;3161;48.794;9.784;2022-11-24T09:59:12;10.57;;;4.63;;
6255;SDS011;3161;48.794;9.784;2022-11-24T10:01:45;14.13;;;5.77;;
6255;SDS011;3161;48.794;9.784;2022-11-24T10:04:20;18.63;;;9.73;;
6255;SDS011;3161;48.794;9.784;2022-11-24T10:07:19;9.93;;;2.80;;
6255;SDS011;3161;48.794;9.784;2022-11-24T10:20:57;6.40;;;2.37;;
6255;SDS011;3161;48.794;9.784;2022-11-24T10:23:45;12.07;;;2.83;;
6255;SDS011;3161;48.794;9.784;2022-11-24T10:26:34;9.33;;;2.00;;
6255;SDS011;3161;48.794;9.784;2022-11-24T10:29:27;7.93;;;2.33;;
6255;SDS011;3161;48.794;9.784;2022-11-24T10:31:40;13.07;;;2.60;;
6255;SDS011;3161;48.794;9.784;2022-11-24T10:34:19;11.40;;;2.43;;
6255;SDS011;3161;48.794;9.784;2022-11-24T10:39:51;20.23;;;3.90;;
6255;SDS011;3161;48.794;9.784;2022-11-24T10:42:32;6.63;;;1.67;;
6255;SDS011;3161;48.794;9.784;2022-11-24T10:45:09;9.77;;;2.37;;
6255;SDS011;3161;48.794;9.784;2022-11-24T10:47:38;7.83;;;2.77;;
6255;SDS011;3161;48.794;9.784;2022-11-24T10:50:20;8.63;;;2.67;;
6255;SDS011;3161;48.794;9.784;2022-11-24T10:58:28;9.77;;;3.63;;
6255;SDS011;3161;48.794;9.784;2022-11-24T11:01:01;9.67;;;2.53;;
6255;SDS011;3161;48.794;9.784;2022-11-24T11:03:47;3.43;;;2.07;;
6255;SDS011;3161;48.794;9.784;2022-11-24T11:06:23;6.20;;;2.13;;
6255;SDS011;3161;48.794;9.784;2022-11-24T11:09:09;6.50;;;1.57;;
6255;SDS011;3161;48.794;9.784;2022-11-24T11:11:35;7.20;;;1.53;;
6255;SDS011;3161;48.794;9.784;2022-11-24T11:14:05;4.83;;;1.90;;
6255;SDS011;3161;48.794;9.784;2022-11-24T11:16:35;1.87;;;1.20;;
6255;SDS011;3161;48.794;9.784;2022-11-24T11:24:39;4.27;;;1.20;;
6255;SDS011;3161;48.794;9.784;2022-11-24T11:27:17;5.90;;;1.00;;
6255;SDS011;3161;48.794;9.784;2022-11-24T11:29:46;3.10;;;1.50;;
6255;SDS011;3161;48.794;9.784;2022-11-24T11:32:18;3.87;;;1.47;;
6255;SDS011;3161;48.794;9.784;2022-11-24T11:34:48;5.57;;;1.27;;
6255;SDS011;3161;48.794;9.784;2022-11-24T11:37:18;4.57;;;1.67;;
6255;SDS011;3161;48.794;9.784;2022-11-24T11:39:52;7.80;;;1.93;;
6255;SDS011;3161;48.794;9.784;2022-11-24T11:42:20;6.73;;;1.60;;
6255;SDS011;3161;48.794;9.784;2022-11-24T11:45:17;4.80;;;1.90;;
6255;SDS011;3161;48.794;9.784;2022-11-24T11:50:46;5.33;;;1.80;;
6255;SDS011;3161;48.794;9.784;2022-11-24T11:53:21;5.37;;;1.70;;
6255;SDS011;3161;48.794;9.784;2022-11-24T11:55:53;5.87;;;1.50;;
6255;SDS011;3161;48.794;9.784;2022-11-24T12:01:03;3.97;;;1.37;;
6255;SDS011;3161;48.794;9.784;2022-11-24T12:03:55;3.60;;;1.13;;
6255;SDS011;3161;48.794;9.784;2022-11-24T12:09:44;7.20;;;1.80;;
6255;SDS011;3161;48.794;9.784;2022-11-24T12:15:19;3.90;;;1.60;;
6255;SDS011;3161;48.794;9.784;2022-11-24T12:20:40;8.83;;;2.10;;
6255;SDS011;3161;48.794;9.784;2022-11-24T12:23:15;5.57;;;1.20;;
6255;SDS011;3161;48.794;9.784;2022-11-24T12:25:42;5.67;;;1.67;;
6255;SDS011;3161;48.794;9.784;2022-11-24T12:31:06;8.77;;;4.00;;
6255;SDS011;3161;48.794;9.784;2022-11-24T12:42:16;10.53;;;2.50;;
6255;SDS011;3161;48.794;9.784;2022-11-24T12:47:34;10.70;;;5.20;;
6255;SDS011;3161;48.794;9.784;2022-11-24T12:50:10;4.23;;;1.23;;
6255;SDS011;3161;48.794;9.784;2022-11-24T12:52:46;6.87;;;0.80;;
6255;SDS011;3161;48.794;9.784;2022-11-24T12:55:24;12.27;;;4.47;;
6255;SDS011;3161;48.794;9.784;2022-11-24T12:57:54;6.43;;;2.23;;
6255;SDS011;3161;48.794;9.784;2022-11-24T13:01:16;7.27;;;2.07;;
6255;SDS011;3161;48.794;9.784;2022-11-24T13:06:16;5.80;;;2.27;;
6255;SDS011;3161;48.794;9.784;2022-11-24T13:08:48;6.93;;;1.77;;
6255;SDS011;3161;48.794;9.784;2022-11-24T13:13:56;4.17;;;1.40;;
6255;SDS011;3161;48.794;9.784;2022-11-24T13:16:46;2.07;;;0.87;;
6255;SDS011;3161;48.794;9.784;2022-11-24T13:19:06;1.50;;;0.80;;
6255;SDS011;3161;48.794;9.784;2022-11-24T13:26:48;2.27;;;1.10;;
6255;SDS011;3161;48.794;9.784;2022-11-24T13:29:29;3.43;;;1.30;;
6255;SDS011;3161;48.794;9.784;2022-11-24T13:37:19;2.77;;;1.10;;
6255;SDS011;3161;48.794;9.784;2022-11-24T13:39:58;4.33;;;0.90;;
6255;SDS011;3161;48.794;9.784;2022-11-24T13:42:30;1.87;;;1.30;;
6255;SDS011;3161;48.794;9.784;2022-11-24T13:45:00;3.60;;;0.87;;
6255;SDS011;3161;48.794;9.784;2022-11-24T13:47:31;13.47;;;1.47;;
6255;SDS011;3161;48.794;9.784;2022-11-24T13:50:11;5.60;;;1.40;;
6255;SDS011;3161;48.794;9.784;2022-11-24T13:57:49;4.93;;;2.23;;
6255;SDS011;3161;48.794;9.784;2022-11-24T14:00:20;6.43;;;2.00;;
6255;SDS011;3161;48.794;9.784;2022-11-24T14:03:02;8.93;;;1.40;;
6255;SDS011;3161;48.794;9.784;2022-11-24T14:05:50;6.80;;;1.63;;
6255;SDS011;3161;48.794;9.784;2022-11-24T14:08:20;3.40;;;1.10;;
6255;SDS011;3161;48.794;9.784;2022-11-24T14:10:52;9.43;;;1.70;;
6255;SDS011;3161;48.794;9.784;2022-11-24T14:13:23;5.23;;;1.43;;
6255;SDS011;3161;48.794;9.784;2022-11-24T14:16:00;8.23;;;1.40;;
6255;SDS011;3161;48.794;9.784;2022-11-24T14:18:29;5.00;;;1.30;;
6255;SDS011;3161;48.794;9.784;2022-11-24T14:20:59;12.40;;;1.10;;
6255;SDS011;3161;48.794;9.784;2022-11-24T14:23:28;6.37;;;1.50;;
6255;SDS011;3161;48.794;9.784;2022-11-24T14:26:02;4.70;;;1.23;;
6255;SDS011;3161;48.794;9.784;2022-11-24T14:28:32;4.50;;;1.57;;
6255;SDS011;3161;48.794;9.784;2022-11-24T14:31:20;3.40;;;1.13;;
6255;SDS011;3161;48.794;9.784;2022-11-24T14:33:49;2.17;;;1.37;;
6255;SDS011;3161;48.794;9.784;2022-11-24T14:36:18;6.53;;;1.67;;
6255;SDS011;3161;48.794;9.784;2022-11-24T14:38:47;5.63;;;2.20;;
6255;SDS011;3161;48.794;9.784;2022-11-24T14:41:19;6.03;;;1.77;;
6255;SDS011;3161;48.794;9.784;2022-11-24T14:44:05;5.87;;;1.37;;
6255;SDS011;3161;48.794;9.784;2022-11-24T14:46:37;9.13;;;1.80;;
6255;SDS011;3161;48.794;9.784;2022-11-24T14:49:05;12.03;;;4.60;;
6255;SDS011;3161;48.794;9.784;2022-11-24T14:51:34;13.03;;;6.03;;
6255;SDS011;3161;48.794;9.784;2022-11-24T14:54:04;10.97;;;4.47;;
6255;SDS011;3161;48.794;9.784;2022-11-24T14:56:35;10.27;;;6.07;;
6255;SDS011;3161;48.794;9.784;2022-11-24T14:59:20;9.73;;;6.83;;
6255;SDS011;3161;48.794;9.784;2022-11-24T15:01:50;11.10;;;6.50;;
6255;SDS011;3161;48.794;9.784;2022-11-24T15:04:23;7.40;;;3.50;;
6255;SDS011;3161;48.794;9.784;2022-11-24T15:07:12;6.07;;;2.20;;
6255;SDS011;3161;48.794;9.784;2022-11-24T15:09:33;3.90;;;2.10;;
6255;SDS011;3161;48.794;9.784;2022-11-24T15:12:09;3.13;;;2.20;;
6255;SDS011;3161;48.794;9.784;2022-11-24T15:17:18;7.27;;;2.27;;
6255;SDS011;3161;48.794;9.784;2022-11-24T15:19:49;4.13;;;1.90;;
6255;SDS011;3161;48.794;9.784;2022-11-24T15:25:00;43.37;;;24.23;;
6255;SDS011;3161;48.794;9.784;2022-11-24T15:27:29;14.87;;;6.73;;
6255;SDS011;3161;48.794;9.784;2022-11-24T15:29:56;14.97;;;5.63;;
6255;SDS011;3161;48.794;9.784;2022-11-24T15:32:24;5.50;;;2.50;;
6255;SDS011;3161;48.794;9.784;2022-11-24T15:34:52;9.27;;;4.50;;
6255;SDS011;3161;48.794;9.784;2022-11-24T15:37:19;6.87;;;3.97;;
6255;SDS011;3161;48.794;9.784;2022-11-24T15:39:47;11.20;;;5.43;;
6255;SDS011;3161;48.794;9.784;2022-11-24T15:42:14;9.67;;;3.83;;
6255;SDS011;3161;48.794;9.784;2022-11-24T15:44:42;22.43;;;12.07;;
6255;SDS011;3161;48.794;9.784;2022-11-24T15:47:09;24.67;;;14.70;;
6255;SDS011;3161;48.794;9.784;2022-11-24T15:49:37;16.90;;;9.63;;
6255;SDS011;3161;48.794;9.784;2022-11-24T15:52:04;13.27;;;7.10;;
6255;SDS011;3161;48.794;9.784;2022-11-24T15:54:32;17.67;;;6.83;;
6255;SDS011;3161;48.794;9.784;2022-11-24T15:56:59;11.87;;;6.60;;
6255;SDS011;3161;48.794;9.784;2022-11-24T15:59:27;6.63;;;4.63;;
6255;SDS011;3161;48.794;9.784;2022-11-24T16:01:55;8.50;;;3.43;;
6255;SDS011;3161;48.794;9.784;2022-11-24T16:04:23;8.23;;;2.83;;
6255;SDS011;3161;48.794;9.784;2022-11-24T16:06:51;3.47;;;2.47;;
6255;SDS011;3161;48.794;9.784;2022-11-24T16:09:18;8.03;;;3.20;;
6255;SDS011;3161;48.794;9.784;2022-11-24T16:11:46;6.30;;;2.90;;
6255;SDS011;3161;48.794;9.784;2022-11-24T16:14:14;7.27;;;3.20;;
6255;SDS011;3161;48.794;9.784;2022-11-24T16:16:41;11.60;;;3.40;;
6255;SDS011;3161;48.794;9.784;2022-11-24T16:19:09;5.90;;;3.60;;
6255;SDS011;3161;48.794;9.784;2022-11-24T16:21:37;10.60;;;4.33;;
6255;SDS011;3161;48.794;9.784;2022-11-24T16:24:05;9.73;;;4.63;;
6255;SDS011;3161;48.794;9.784;2022-11-24T16:26:33;12.80;;;4.20;;
6255;SDS011;3161;48.794;9.784;2022-11-24T16:29:00;9.87;;;5.03;;
6255;SDS011;3161;48.794;9.784;2022-11-24T16:31:28;8.23;;;5.10;;
6255;SDS011;3161;48.794;9.784;2022-11-24T16:33:56;12.60;;;6.30;;
6255;SDS011;3161;48.794;9.784;2022-11-24T16:36:24;14.10;;;7.27;;
6255;SDS011;3161;48.794;9.784;2022-11-24T16:38:53;11.97;;;6.17;;
6255;SDS011;3161;48.794;9.784;2022-11-24T16:41:20;7.90;;;5.20;;
6255;SDS011;3161;48.794;9.784;2022-11-24T16:43:48;7.07;;;5.60;;
6255;SDS011;3161;48.794;9.784;2022-11-24T16:46:17;14.00;;;4.67;;
6255;SDS011;3161;48.794;9.784;2022-11-24T16:48:47;7.30;;;4.97;;
6255;SDS011;3161;48.794;9.784;2022-11-24T16:51:16;5.83;;;4.23;;
6255;SDS011;3161;48.794;9.784;2022-11-24T16:53:45;11.97;;;6.80;;
6255;SDS011;3161;48.794;9.784;2022-11-24T16:56:13;12.77;;;6.77;;
6255;SDS011;3161;48.794;9.784;2022-11-24T16:58:41;9.87;;;6.00;;
6255;SDS011;3161;48.794;9.784;2022-11-24T17:01:10;4.27;;;3.30;;
6255;SDS011;3161;48.794;9.784;2022-11-24T17:03:38;4.80;;;2.43;;
6255;SDS011;3161;48.794;9.784;2022-11-24T17:06:07;11.10;;;2.60;;
6255;SDS011;3161;48.794;9.784;2022-11-24T17:08:36;9.17;;;3.50;;